Time;durP1;ratioP1;P1;durP2;ratioP2;P2;SDS_P1;SDS_P2;PMS_P1;PMS_P2;Temp;Humidity;BMP_temperature;BMP_pressure;BME280_temperature;BME280_humidity;BME280_pressure;Samples;Min_cycle;Max_cycle;Signal;HPM_P1;HPM_P2
2024/01/31 00:01:31;;;;;;;11.30;7.13;;;;;;;;;;4990234;28;20058;-71
2024/01/31 00:05:12;;;;;;;15.43;7.70;;;;;;;;;;4982404;28;20047;-69
2024/01/31 00:08:52;;;;;;;14.65;7.32;;;;;;;;;;4988563;28;20065;-67
2024/01/31 00:12:34;;;;;;;14.65;7.75;;;;;;;;;;4988581;28;20042;-67
2024/01/31 00:16:16;;;;;;;17.10;7.47;;;;;;;;;;4993235;28;20084;-69
2024/01/31 00:19:59;;;;;;;14.80;8.10;;;;;;;;;;4989074;28;20133;-68
2024/01/31 00:23:39;;;;;;;25.00;8.88;;;;;;;;;;4989091;28;20387;-67
2024/01/31 00:27:23;;;;;;;11.93;7.25;;;;;;;;;;4986033;28;20057;-68
2024/01/31 00:31:05;;;;;;;17.80;7.97;;;;;;;;;;4985768;28;20061;-68
2024/01/31 00:34:45;;;;;;;13.93;7.72;;;;;;;;;;4984228;28;20066;-66
2024/01/31 00:38:26;;;;;;;20.75;7.93;;;;;;;;;;4988515;28;20077;-66
2024/01/31 00:42:07;;;;;;;16.83;8.27;;;;;;;;;;4986569;28;20473;-67
2024/01/31 00:45:47;;;;;;;14.52;8.50;;;;;;;;;;4979734;28;20081;-68
2024/01/31 00:49:28;;;;;;;19.55;9.30;;;;;;;;;;4992438;28;20128;-68
2024/01/31 00:53:09;;;;;;;15.07;9.10;;;;;;;;;;4980894;28;20050;-67
2024/01/31 00:56:50;;;;;;;20.95;9.85;;;;;;;;;;4983684;28;20063;-67
2024/01/31 01:00:31;;;;;;;16.67;9.23;;;;;;;;;;4986331;28;20034;-67
2024/01/31 01:04:11;;;;;;;14.30;9.52;;;;;;;;;;4988943;28;20326;-68
2024/01/31 01:07:52;;;;;;;17.45;10.02;;;;;;;;;;4989507;28;20077;-67
2024/01/31 01:11:33;;;;;;;18.70;10.10;;;;;;;;;;4987641;28;20054;-66
2024/01/31 01:15:18;;;;;;;19.88;9.93;;;;;;;;;;4985683;28;20050;-66
2024/01/31 01:18:55;;;;;;;21.30;10.95;;;;;;;;;;4989943;28;20053;-67
2024/01/31 01:22:35;;;;;;;17.70;10.85;;;;;;;;;;4988367;28;20050;-67
2024/01/31 01:26:16;;;;;;;18.88;10.65;;;;;;;;;;4988974;28;20493;-67
2024/01/31 01:29:56;;;;;;;23.58;10.48;;;;;;;;;;4989802;28;20140;-66
2024/01/31 01:33:37;;;;;;;20.63;10.48;;;;;;;;;;4990012;28;20051;-67
2024/01/31 01:37:17;;;;;;;25.10;11.27;;;;;;;;;;4986432;28;20050;-68
2024/01/31 01:41:03;;;;;;;20.98;11.13;;;;;;;;;;4988106;28;20053;-67
2024/01/31 01:44:46;;;;;;;17.60;10.87;;;;;;;;;;4991135;28;20159;-67
2024/01/31 01:48:26;;;;;;;19.08;11.02;;;;;;;;;;4987923;28;20517;-66
2024/01/31 01:52:07;;;;;;;20.90;11.00;;;;;;;;;;4986188;28;20465;-68
2024/01/31 01:55:48;;;;;;;16.35;10.82;;;;;;;;;;4983103;28;20141;-67
2024/01/31 01:59:30;;;;;;;21.05;11.25;;;;;;;;;;4985057;28;20116;-68
2024/01/31 02:03:11;;;;;;;22.85;12.02;;;;;;;;;;4985465;28;20060;-66
2024/01/31 02:06:52;;;;;;;21.42;12.15;;;;;;;;;;4982853;28;20046;-68
2024/01/31 02:10:32;;;;;;;19.25;10.88;;;;;;;;;;4989258;28;20089;-68
2024/01/31 02:14:12;;;;;;;22.92;11.88;;;;;;;;;;4987914;28;20390;-66
2024/01/31 02:17:53;;;;;;;15.55;10.13;;;;;;;;;;4984563;28;20092;-65
2024/01/31 02:21:33;;;;;;;16.98;10.63;;;;;;;;;;4985715;28;20393;-68
2024/01/31 02:25:14;;;;;;;20.60;10.50;;;;;;;;;;4987740;28;20117;-67
2024/01/31 02:28:54;;;;;;;20.13;10.68;;;;;;;;;;4986092;28;20072;-67
2024/01/31 02:32:36;;;;;;;22.45;11.57;;;;;;;;;;4983551;28;20046;-66
2024/01/31 02:36:16;;;;;;;19.50;11.43;;;;;;;;;;4985793;28;20046;-67
2024/01/31 02:39:56;;;;;;;23.13;10.95;;;;;;;;;;4986104;28;20046;-67
2024/01/31 02:42:59;;;;;;;18.30;10.60;;;;;;;;;;4984508;28;20050;-68
2024/01/31 02:45:27;;;;;;;19.77;11.70;;;;;;;;;;4985104;28;20050;-68
2024/01/31 02:47:53;;;;;;;24.13;11.18;;;;;;;;;;4986395;28;20141;-67
2024/01/31 02:50:21;;;;;;;18.52;10.57;;;;;;;;;;4985590;28;20518;-67
2024/01/31 02:52:48;;;;;;;22.67;11.18;;;;;;;;;;4984812;28;20054;-69
2024/01/31 02:55:15;;;;;;;26.10;11.65;;;;;;;;;;4983027;28;20145;-67
2024/01/31 02:57:43;;;;;;;21.95;11.07;;;;;;;;;;4985229;28;20061;-66
2024/01/31 03:00:11;;;;;;;18.02;10.77;;;;;;;;;;4986008;28;20453;-66
2024/01/31 03:02:39;;;;;;;20.25;11.43;;;;;;;;;;4984979;28;20045;-67
2024/01/31 03:05:07;;;;;;;20.48;10.88;;;;;;;;;;4981641;28;20062;-68
2024/01/31 03:07:33;;;;;;;19.83;10.75;;;;;;;;;;4985763;28;20582;-66
2024/01/31 03:10:00;;;;;;;18.33;10.63;;;;;;;;;;4983847;28;20524;-67
2024/01/31 03:12:26;;;;;;;23.48;11.85;;;;;;;;;;4986053;28;20128;-66
2024/01/31 03:14:52;;;;;;;24.23;10.90;;;;;;;;;;4982834;28;20116;-66
2024/01/31 03:17:17;;;;;;;19.08;10.93;;;;;;;;;;4986525;28;20578;-66
2024/01/31 03:20:23;;;;;;;20.77;10.88;;;;;;;;;;4986649;28;20050;-67
2024/01/31 03:24:04;;;;;;;25.50;10.90;;;;;;;;;;4987789;28;20050;-66
2024/01/31 03:27:44;;;;;;;15.43;10.20;;;;;;;;;;4982306;28;20049;-67
2024/01/31 03:31:26;;;;;;;16.30;10.50;;;;;;;;;;4984325;28;20054;-65
2024/01/31 03:35:06;;;;;;;18.08;10.32;;;;;;;;;;4982291;28;20054;-66
2024/01/31 03:38:46;;;;;;;18.63;9.80;;;;;;;;;;4980893;28;20038;-67
2024/01/31 03:42:27;;;;;;;15.95;9.80;;;;;;;;;;4981185;28;20054;-67
2024/01/31 03:46:07;;;;;;;16.45;9.05;;;;;;;;;;4981842;28;20440;-66
2024/01/31 03:49:47;;;;;;;19.00;9.07;;;;;;;;;;4987716;28;20129;-67
2024/01/31 03:53:29;;;;;;;21.58;9.13;;;;;;;;;;4981874;28;20062;-67
2024/01/31 03:57:09;;;;;;;16.10;8.90;;;;;;;;;;4980291;28;20058;-67
2024/01/31 04:00:50;;;;;;;17.15;9.85;;;;;;;;;;4988171;28;20420;-68
2024/01/31 04:04:32;;;;;;;20.13;9.57;;;;;;;;;;4984389;28;20057;-68
2024/01/31 04:07:32;;;;;;;21.23;9.23;;;;;;;;;;4989642;28;20460;-69
2024/01/31 04:09:59;;;;;;;18.05;9.32;;;;;;;;;;4988185;28;20422;-67
2024/01/31 04:12:26;;;;;;;19.33;9.55;;;;;;;;;;4990516;28;20464;-69
2024/01/31 04:14:53;;;;;;;19.65;9.80;;;;;;;;;;4986741;28;20042;-66
2024/01/31 04:17:19;;;;;;;21.25;10.70;;;;;;;;;;4984563;28;20344;-66
2024/01/31 04:19:48;;;;;;;28.42;11.07;;;;;;;;;;4988214;28;20073;-67
2024/01/31 04:22:16;;;;;;;19.50;10.40;;;;;;;;;;4978711;28;20050;-66
2024/01/31 04:24:43;;;;;;;26.60;10.93;;;;;;;;;;4987367;28;20054;-67
2024/01/31 04:27:11;;;;;;;19.27;10.57;;;;;;;;;;4986026;28;20487;-65
2024/01/31 04:29:39;;;;;;;20.90;10.75;;;;;;;;;;4990287;28;20057;-66
2024/01/31 04:32:09;;;;;;;19.20;10.02;;;;;;;;;;4983658;28;20065;-67
2024/01/31 04:34:45;;;;;;;17.55;10.45;;;;;;;;;;4984956;28;20124;-66
2024/01/31 04:37:12;;;;;;;15.25;9.40;;;;;;;;;;4987156;28;20074;-66
2024/01/31 04:39:38;;;;;;;18.50;9.32;;;;;;;;;;4991036;28;20046;-67
2024/01/31 04:42:04;;;;;;;18.48;9.68;;;;;;;;;;4989282;28;20046;-65
2024/01/31 04:44:33;;;;;;;17.17;9.23;;;;;;;;;;4990880;28;20050;-65
2024/01/31 04:46:59;;;;;;;18.23;9.32;;;;;;;;;;4989405;28;20141;-66
2024/01/31 04:49:25;;;;;;;19.25;9.15;;;;;;;;;;4986627;28;20069;-66
2024/01/31 04:51:55;;;;;;;14.38;8.63;;;;;;;;;;4984279;28;20051;-66
2024/01/31 04:54:24;;;;;;;13.95;9.63;;;;;;;;;;4984214;28;20142;-66
2024/01/31 04:56:51;;;;;;;22.05;10.05;;;;;;;;;;4986621;28;20050;-67
2024/01/31 04:59:17;;;;;;;22.73;10.20;;;;;;;;;;4989375;28;20050;-66
2024/01/31 05:01:43;;;;;;;18.55;9.50;;;;;;;;;;4987525;28;20054;-66
2024/01/31 05:04:12;;;;;;;18.00;9.68;;;;;;;;;;4983350;28;20101;-66
2024/01/31 05:06:38;;;;;;;21.38;10.38;;;;;;;;;;4984966;28;20466;-66
2024/01/31 05:09:04;;;;;;;17.20;9.40;;;;;;;;;;4990536;28;20116;-67
2024/01/31 05:11:30;;;;;;;18.35;9.80;;;;;;;;;;4984553;28;20054;-67
2024/01/31 05:13:57;;;;;;;20.17;9.02;;;;;;;;;;4989201;28;20057;-67
2024/01/31 05:16:25;;;;;;;14.73;9.07;;;;;;;;;;4987223;28;20121;-67
2024/01/31 05:18:52;;;;;;;19.92;10.15;;;;;;;;;;4983710;28;20047;-67
2024/01/31 05:21:19;;;;;;;17.77;9.30;;;;;;;;;;4987251;28;20471;-66
2024/01/31 05:23:46;;;;;;;18.50;9.98;;;;;;;;;;4990300;28;20058;-67
2024/01/31 05:26:12;;;;;;;17.38;10.38;;;;;;;;;;4986395;28;20056;-66
2024/01/31 05:28:39;;;;;;;17.10;11.82;;;;;;;;;;4990556;28;20062;-67
2024/01/31 05:31:07;;;;;;;21.77;12.80;;;;;;;;;;4989400;28;20104;-69
2024/01/31 05:33:33;;;;;;;24.10;12.98;;;;;;;;;;4989011;28;20054;-69
2024/01/31 05:36:00;;;;;;;18.50;14.18;;;;;;;;;;4986373;28;20479;-68
2024/01/31 05:38:27;;;;;;;23.65;16.02;;;;;;;;;;4982686;28;20058;-69
2024/01/31 05:40:52;;;;;;;25.77;16.38;;;;;;;;;;4982895;28;20078;-71
2024/01/31 05:43:18;;;;;;;26.00;16.95;;;;;;;;;;4988933;28;20068;-71
2024/01/31 05:45:46;;;;;;;31.10;17.77;;;;;;;;;;4992279;28;20046;-68
2024/01/31 05:48:14;;;;;;;32.15;24.10;;;;;;;;;;4987655;28;20117;-68
2024/01/31 05:50:41;;;;;;;36.83;25.10;;;;;;;;;;4986307;28;20100;-67
2024/01/31 05:53:08;;;;;;;33.22;23.73;;;;;;;;;;4972342;28;20498;-67
2024/01/31 05:55:35;;;;;;;32.35;22.75;;;;;;;;;;4985569;28;20047;-68
2024/01/31 05:58:41;;;;;;;35.35;21.85;;;;;;;;;;4981537;28;20050;-68
2024/01/31 06:02:21;;;;;;;32.67;24.08;;;;;;;;;;4990421;28;20162;-68
2024/01/31 06:06:01;;;;;;;37.42;24.40;;;;;;;;;;4987641;28;20062;-68
2024/01/31 06:09:43;;;;;;;30.35;20.80;;;;;;;;;;4986920;28;20075;-67
2024/01/31 06:13:24;;;;;;;34.28;19.98;;;;;;;;;;4983315;28;20560;-67
2024/01/31 06:16:24;;;;;;;33.72;18.02;;;;;;;;;;4982353;28;20050;-67
2024/01/31 06:19:30;;;;;;;30.88;17.58;;;;;;;;;;4984731;28;20038;-67
2024/01/31 06:23:11;;;;;;;34.75;17.23;;;;;;;;;;4980247;28;20042;-68
2024/01/31 06:26:51;;;;;;;25.88;17.83;;;;;;;;;;4964050;28;20050;-67
2024/01/31 06:30:31;;;;;;;34.50;16.83;;;;;;;;;;4974909;28;20097;-67
2024/01/31 06:34:06;;;;;;;27.95;16.50;;;;;;;;;;4975990;28;20046;-74
2024/01/31 06:37:47;;;;;;;23.90;16.40;;;;;;;;;;4969806;28;20126;-65
2024/01/31 06:41:28;;;;;;;31.83;17.45;;;;;;;;;;4969260;28;20042;-67
2024/01/31 06:45:08;;;;;;;27.55;16.15;;;;;;;;;;4966341;28;20541;-67
2024/01/31 06:48:50;;;;;;;31.90;16.15;;;;;;;;;;4972747;28;20069;-67
2024/01/31 06:52:31;;;;;;;21.98;14.05;;;;;;;;;;4971068;28;20081;-67
2024/01/31 06:56:19;;;;;;;26.63;13.52;;;;;;;;;;4970668;28;20387;-69
2024/01/31 06:59:59;;;;;;;26.13;13.57;;;;;;;;;;4970340;28;20097;-68
2024/01/31 07:03:39;;;;;;;25.55;12.27;;;;;;;;;;4971024;28;20608;-69
2024/01/31 07:07:20;;;;;;;31.25;13.20;;;;;;;;;;4964285;28;20061;-72
2024/01/31 07:11:00;;;;;;;16.75;9.90;;;;;;;;;;4970924;28;20173;-69
2024/01/31 07:14:41;;;;;;;20.67;10.98;;;;;;;;;;4968225;28;20260;-68
2024/01/31 07:18:21;;;;;;;26.08;11.38;;;;;;;;;;4970402;28;20046;-70
2024/01/31 07:22:02;;;;;;;22.42;10.68;;;;;;;;;;4969615;28;20170;-69
2024/01/31 07:25:43;;;;;;;22.35;10.85;;;;;;;;;;4964373;28;20411;-69
2024/01/31 07:29:25;;;;;;;22.35;9.45;;;;;;;;;;4978865;28;20062;-67
2024/01/31 07:33:06;;;;;;;18.15;9.15;;;;;;;;;;4971334;28;20050;-73
2024/01/31 07:36:46;;;;;;;23.75;10.15;;;;;;;;;;4977859;28;20042;-69
2024/01/31 07:40:27;;;;;;;25.80;8.88;;;;;;;;;;4974517;28;20081;-71
2024/01/31 07:44:12;;;;;;;18.55;8.57;;;;;;;;;;4991403;28;20056;-67
2024/01/31 07:47:51;;;;;;;24.30;11.75;;;;;;;;;;4990321;28;20077;-68
2024/01/31 07:50:18;;;;;;;23.57;12.00;;;;;;;;;;4992098;28;20073;-68
2024/01/31 07:52:45;;;;;;;24.48;11.13;;;;;;;;;;4987394;28;20046;-71
2024/01/31 07:55:15;;;;;;;25.00;12.25;;;;;;;;;;4984887;28;20050;-71
2024/01/31 07:58:21;;;;;;;29.38;13.10;;;;;;;;;;4986993;28;20046;-68
2024/01/31 08:01:38;;;;;;;25.23;12.25;;;;;;;;;;4987278;28;20050;-68
2024/01/31 08:04:59;;;;;;;27.65;12.52;;;;;;;;;;4984050;28;20046;-69
2024/01/31 08:08:42;;;;;;;27.15;11.80;;;;;;;;;;4988854;28;20092;-70
2024/01/31 08:12:24;;;;;;;18.50;10.88;;;;;;;;;;4989497;28;20385;-73
2024/01/31 08:16:04;;;;;;;20.70;10.30;;;;;;;;;;4985496;28;20485;-71
2024/01/31 08:19:45;;;;;;;28.83;10.00;;;;;;;;;;4989243;28;20252;-68
2024/01/31 08:23:25;;;;;;;22.92;10.23;;;;;;;;;;4991171;28;20058;-72
2024/01/31 08:27:05;;;;;;;26.13;10.07;;;;;;;;;;4988116;28;20069;-68
2024/01/31 08:30:46;;;;;;;20.80;8.38;;;;;;;;;;4983574;28;20100;-70
2024/01/31 08:33:47;;;;;;;20.23;8.43;;;;;;;;;;4977326;28;20042;-70
2024/01/31 08:36:13;;;;;;;20.20;8.57;;;;;;;;;;4982768;28;20051;-71
2024/01/31 08:38:43;;;;;;;27.33;9.10;;;;;;;;;;4988339;28;20669;-69
2024/01/31 08:41:11;;;;;;;26.70;9.27;;;;;;;;;;4987690;28;20058;-69
2024/01/31 08:43:39;;;;;;;18.92;8.25;;;;;;;;;;4989609;28;20133;-70
2024/01/31 08:46:06;;;;;;;15.45;7.78;;;;;;;;;;4979052;28;20122;-71
2024/01/31 08:48:31;;;;;;;24.40;8.82;;;;;;;;;;4986226;28;20658;-69
2024/01/31 08:50:58;;;;;;;19.35;7.85;;;;;;;;;;4988276;28;20104;-70
2024/01/31 08:53:29;;;;;;;22.90;8.40;;;;;;;;;;4984933;28;20145;-71
2024/01/31 08:55:55;;;;;;;33.58;9.95;;;;;;;;;;4983703;28;20502;-69
2024/01/31 08:58:22;;;;;;;20.02;8.25;;;;;;;;;;4982614;28;20044;-71
2024/01/31 09:00:48;;;;;;;20.67;7.60;;;;;;;;;;4989538;28;20061;-70
2024/01/31 09:03:15;;;;;;;14.73;6.80;;;;;;;;;;4987480;28;20078;-70
2024/01/31 09:05:43;;;;;;;14.63;6.50;;;;;;;;;;4986407;28;20421;-69
2024/01/31 09:08:10;;;;;;;18.58;7.07;;;;;;;;;;5002406;28;20046;-69
2024/01/31 09:10:39;;;;;;;18.35;6.00;;;;;;;;;;4988364;28;20054;-71
2024/01/31 09:13:08;;;;;;;28.08;6.53;;;;;;;;;;4992245;28;20104;-71
2024/01/31 09:15:36;;;;;;;24.05;7.63;;;;;;;;;;4974485;28;20065;-72
2024/01/31 09:18:03;;;;;;;18.25;6.90;;;;;;;;;;4979705;28;20050;-70
2024/01/31 09:20:32;;;;;;;19.50;6.25;;;;;;;;;;4988221;28;20081;-71
2024/01/31 09:23:00;;;;;;;23.05;6.97;;;;;;;;;;4971450;28;20521;-71
2024/01/31 09:25:27;;;;;;;19.70;6.03;;;;;;;;;;4980242;28;20141;-70
2024/01/31 09:28:33;;;;;;;24.73;5.82;;;;;;;;;;4992015;28;20633;-71
2024/01/31 09:32:15;;;;;;;19.40;6.03;;;;;;;;;;4978849;28;20101;-67
2024/01/31 09:35:57;;;;;;;22.67;5.40;;;;;;;;;;4981768;28;20034;-70
2024/01/31 09:39:39;;;;;;;13.88;4.88;;;;;;;;;;4988395;28;20061;-72
2024/01/31 09:43:21;;;;;;;13.63;4.85;;;;;;;;;;4991372;28;20418;-70
2024/01/31 09:47:01;;;;;;;15.07;4.20;;;;;;;;;;4981881;28;20051;-74
2024/01/31 09:50:41;;;;;;;20.67;5.30;;;;;;;;;;4989824;28;20049;-71
2024/01/31 09:54:24;;;;;;;17.25;5.00;;;;;;;;;;4983008;28;20100;-72
2024/01/31 09:58:03;;;;;;;17.02;5.68;;;;;;;;;;4983910;28;20054;-71
2024/01/31 10:01:44;;;;;;;12.32;4.95;;;;;;;;;;4987847;28;20466;-71
2024/01/31 10:05:25;;;;;;;19.75;5.40;;;;;;;;;;4979519;28;20046;-70
2024/01/31 10:09:07;;;;;;;22.83;6.05;;;;;;;;;;4987034;28;20050;-70
2024/01/31 10:12:47;;;;;;;11.85;5.18;;;;;;;;;;4985194;28;20042;-73
2024/01/31 10:16:28;;;;;;;14.48;5.78;;;;;;;;;;4988841;28;20054;-70
2024/01/31 10:20:10;;;;;;;14.65;3.97;;;;;;;;;;4986844;28;20169;-70
2024/01/31 10:23:49;;;;;;;13.77;4.70;;;;;;;;;;4987483;28;20081;-69
2024/01/31 10:27:30;;;;;;;18.95;5.65;;;;;;;;;;4983154;28;20050;-70
2024/01/31 10:31:10;;;;;;;16.13;5.75;;;;;;;;;;4984288;28;20085;-72
2024/01/31 10:34:54;;;;;;;17.05;5.80;;;;;;;;;;4978448;28;20042;-72
2024/01/31 10:38:37;;;;;;;20.65;6.78;;;;;;;;;;4982644;28;20088;-68
2024/01/31 10:42:20;;;;;;;17.05;7.00;;;;;;;;;;4982599;28;20129;-69
2024/01/31 10:46:01;;;;;;;17.40;6.60;;;;;;;;;;4982518;28;20051;-71
2024/01/31 10:49:41;;;;;;;22.55;6.15;;;;;;;;;;4986626;28;20042;-73
2024/01/31 10:53:22;;;;;;;16.02;6.65;;;;;;;;;;4980395;28;20720;-69
2024/01/31 10:57:02;;;;;;;30.00;6.30;;;;;;;;;;4982560;28;20082;-73
2024/01/31 11:00:47;;;;;;;14.55;6.43;;;;;;;;;;4985797;28;20372;-71
2024/01/31 11:04:27;;;;;;;23.92;7.75;;;;;;;;;;4979729;28;20494;-68
2024/01/31 11:08:07;;;;;;;15.48;7.25;;;;;;;;;;4987992;28;20268;-69
2024/01/31 11:11:11;;;;;;;17.92;7.43;;;;;;;;;;4974594;28;20043;-67
2024/01/31 11:13:38;;;;;;;21.92;7.65;;;;;;;;;;4989251;28;20118;-68
2024/01/31 11:16:05;;;;;;;26.08;7.35;;;;;;;;;;4985830;28;20073;-68
2024/01/31 11:18:33;;;;;;;20.23;8.25;;;;;;;;;;4978572;28;20054;-72
2024/01/31 11:20:59;;;;;;;24.30;7.68;;;;;;;;;;4986493;28;20051;-69
2024/01/31 11:23:26;;;;;;;21.70;8.48;;;;;;;;;;4985698;28;20133;-68
2024/01/31 11:25:55;;;;;;;21.17;7.63;;;;;;;;;;4986730;28;20573;-71
2024/01/31 11:28:27;;;;;;;17.90;7.78;;;;;;;;;;4984843;28;20039;-73
2024/01/31 11:30:53;;;;;;;23.42;7.45;;;;;;;;;;4979941;28;20046;-71
2024/01/31 11:33:21;;;;;;;16.40;5.90;;;;;;;;;;4982019;28;20050;-70
2024/01/31 11:35:48;;;;;;;29.20;7.20;;;;;;;;;;4982261;28;20502;-74
2024/01/31 11:38:15;;;;;;;18.55;6.82;;;;;;;;;;4986521;28;20130;-70
2024/01/31 11:40:40;;;;;;;13.70;6.05;;;;;;;;;;4985618;28;20145;-71
2024/01/31 11:43:08;;;;;;;20.98;6.90;;;;;;;;;;4986336;28;20261;-75
2024/01/31 11:45:36;;;;;;;18.95;6.15;;;;;;;;;;4985527;28;20432;-71
2024/01/31 11:48:05;;;;;;;17.95;6.22;;;;;;;;;;4983870;28;20054;-70
2024/01/31 11:50:31;;;;;;;17.52;5.70;;;;;;;;;;4986243;28;20131;-70
2024/01/31 11:52:58;;;;;;;16.70;6.18;;;;;;;;;;4990428;28;20130;-71
2024/01/31 11:55:30;;;;;;;16.90;5.32;;;;;;;;;;4986334;28;20165;-70
2024/01/31 11:57:56;;;;;;;14.68;4.85;;;;;;;;;;4986651;28;20058;-71
2024/01/31 12:00:24;;;;;;;16.20;4.30;;;;;;;;;;4991688;28;20660;-72
2024/01/31 12:02:56;;;;;;;18.27;4.43;;;;;;;;;;4989748;28;20046;-70
2024/01/31 12:05:24;;;;;;;17.15;3.80;;;;;;;;;;4975536;28;20054;-72
2024/01/31 12:07:58;;;;;;;19.73;4.18;;;;;;;;;;4985791;28;20046;-71
2024/01/31 12:10:26;;;;;;;16.48;4.45;;;;;;;;;;4985169;28;20212;-72
2024/01/31 12:12:59;;;;;;;12.80;4.25;;;;;;;;;;5001422;28;20125;-71
2024/01/31 12:15:25;;;;;;;16.25;4.28;;;;;;;;;;4989507;28;20407;-71
2024/01/31 12:17:53;;;;;;;15.38;3.70;;;;;;;;;;4989166;28;20130;-71
2024/01/31 12:20:19;;;;;;;14.27;4.68;;;;;;;;;;4986208;28;20066;-73
2024/01/31 12:22:46;;;;;;;13.60;4.05;;;;;;;;;;4988582;28;20062;-70
2024/01/31 12:25:12;;;;;;;14.23;3.65;;;;;;;;;;4984048;28;20125;-70
2024/01/31 12:27:38;;;;;;;12.32;3.33;;;;;;;;;;4981137;28;20046;-68
2024/01/31 12:30:05;;;;;;;12.70;3.75;;;;;;;;;;4990764;28;20050;-69
2024/01/31 12:32:31;;;;;;;18.58;4.70;;;;;;;;;;4989657;28;20635;-70
2024/01/31 12:35:01;;;;;;;14.55;4.65;;;;;;;;;;4999182;28;20065;-70
2024/01/31 12:37:27;;;;;;;12.98;4.07;;;;;;;;;;4990629;28;20050;-70
2024/01/31 12:39:54;;;;;;;12.40;3.30;;;;;;;;;;4990344;28;20050;-70
2024/01/31 12:42:21;;;;;;;9.93;3.63;;;;;;;;;;4989635;28;20536;-70
2024/01/31 12:44:47;;;;;;;14.85;3.78;;;;;;;;;;4977615;28;20502;-70
2024/01/31 12:47:13;;;;;;;13.50;3.15;;;;;;;;;;4990874;28;20054;-72
2024/01/31 12:49:43;;;;;;;8.88;3.10;;;;;;;;;;4987180;28;20058;-73
2024/01/31 12:52:11;;;;;;;11.45;2.88;;;;;;;;;;4987645;28;20212;-71
2024/01/31 12:54:39;;;;;;;9.68;3.33;;;;;;;;;;4988092;28;20442;-69
2024/01/31 12:57:05;;;;;;;8.02;2.95;;;;;;;;;;4988451;28;20425;-71
2024/01/31 12:59:33;;;;;;;19.80;4.28;;;;;;;;;;4988180;28;20054;-71
2024/01/31 13:01:58;;;;;;;13.55;3.90;;;;;;;;;;4990557;28;20042;-73
2024/01/31 13:04:25;;;;;;;15.25;4.88;;;;;;;;;;4991821;28;20062;-71
2024/01/31 13:06:55;;;;;;;18.58;5.00;;;;;;;;;;4988962;28;20466;-70
2024/01/31 13:09:22;;;;;;;12.02;4.35;;;;;;;;;;4990401;28;20088;-71
2024/01/31 13:11:51;;;;;;;12.63;4.00;;;;;;;;;;4990693;28;20043;-72
2024/01/31 13:14:28;;;;;;;13.82;3.95;;;;;;;;;;4990689;28;20054;-70
2024/01/31 13:17:04;;;;;;;14.95;3.83;;;;;;;;;;4992029;28;20050;-70
2024/01/31 13:19:31;;;;;;;12.45;3.33;;;;;;;;;;4993745;28;20042;-70
2024/01/31 13:21:57;;;;;;;11.80;4.07;;;;;;;;;;4990436;28;20113;-71
2024/01/31 13:24:24;;;;;;;22.58;4.88;;;;;;;;;;4988607;28;20118;-70
2024/01/31 13:26:51;;;;;;;17.05;4.65;;;;;;;;;;4985264;28;20046;-70
2024/01/31 13:29:18;;;;;;;14.00;3.97;;;;;;;;;;4975291;28;20065;-70
2024/01/31 13:31:45;;;;;;;11.88;4.05;;;;;;;;;;4972457;28;20192;-70
2024/01/31 13:34:15;;;;;;;12.13;3.55;;;;;;;;;;4988964;28;20414;-71
2024/01/31 13:36:42;;;;;;;13.85;3.67;;;;;;;;;;4991472;28;20061;-72
2024/01/31 13:39:09;;;;;;;20.73;3.55;;;;;;;;;;4987130;28;20390;-71
2024/01/31 13:41:39;;;;;;;14.07;3.50;;;;;;;;;;4987937;28;20054;-71
2024/01/31 13:44:08;;;;;;;16.65;4.13;;;;;;;;;;4968654;28;20077;-72
2024/01/31 13:46:34;;;;;;;18.73;4.10;;;;;;;;;;4986433;28;20543;-72
2024/01/31 13:49:00;;;;;;;8.80;3.35;;;;;;;;;;4986712;28;20184;-71
2024/01/31 13:51:30;;;;;;;13.85;4.10;;;;;;;;;;4990276;28;20185;-71
2024/01/31 13:53:56;;;;;;;14.85;4.60;;;;;;;;;;4986314;28;20054;-73
2024/01/31 13:56:22;;;;;;;12.70;4.03;;;;;;;;;;4989775;28;20054;-70
2024/01/31 13:58:48;;;;;;;19.33;4.57;;;;;;;;;;4987442;28;20398;-70
2024/01/31 14:01:14;;;;;;;18.45;6.22;;;;;;;;;;4986074;28;20072;-71
2024/01/31 14:03:47;;;;;;;16.77;4.53;;;;;;;;;;4989491;28;20062;-71
2024/01/31 14:06:17;;;;;;;16.98;4.32;;;;;;;;;;4988429;28;20445;-71
2024/01/31 14:08:45;;;;;;;30.65;5.25;;;;;;;;;;4986342;28;20104;-69
2024/01/31 14:11:17;;;;;;;26.08;4.90;;;;;;;;;;4975963;28;20058;-70
2024/01/31 14:13:46;;;;;;;;;;;;;;;;;;4989106;28;20046;-70
2024/01/31 14:16:14;;;;;;;20.38;5.68;;;;;;;;;;4984528;28;20371;-70
2024/01/31 14:19:57;;;;;;;18.45;4.63;;;;;;;;;;4992149;28;20046;-70
2024/01/31 14:23:37;;;;;;;18.77;3.42;;;;;;;;;;4988425;28;20511;-71
2024/01/31 14:27:18;;;;;;;11.15;3.20;;;;;;;;;;4979661;28;20043;-71
2024/01/31 14:30:58;;;;;;;10.75;3.38;;;;;;;;;;4983118;28;20046;-71
2024/01/31 14:34:41;;;;;;;13.73;3.30;;;;;;;;;;4990563;28;20484;-71
2024/01/31 14:38:22;;;;;;;21.63;3.90;;;;;;;;;;4989015;28;20478;-70
2024/01/31 14:42:02;;;;;;;9.73;3.70;;;;;;;;;;4979634;28;20046;-71
2024/01/31 14:45:44;;;;;;;15.30;3.78;;;;;;;;;;4987008;28;20089;-71
2024/01/31 14:49:23;;;;;;;12.02;3.80;;;;;;;;;;4986693;28;20117;-74
2024/01/31 14:53:03;;;;;;;17.40;4.13;;;;;;;;;;4986584;28;20532;-69
2024/01/31 14:56:44;;;;;;;16.17;3.47;;;;;;;;;;4981185;28;20099;-70
2024/01/31 15:00:24;;;;;;;9.40;3.30;;;;;;;;;;4982708;28;20049;-71
2024/01/31 15:04:05;;;;;;;12.82;3.10;;;;;;;;;;4985979;28;20074;-71
2024/01/31 15:07:48;;;;;;;13.65;3.13;;;;;;;;;;4988941;28;20253;-71
2024/01/31 15:11:31;;;;;;;12.65;3.13;;;;;;;;;;4984537;28;20109;-71
2024/01/31 15:15:12;;;;;;;18.58;4.05;;;;;;;;;;4984999;28;20524;-70
2024/01/31 15:18:53;;;;;;;17.08;5.07;;;;;;;;;;4985255;28;20047;-71
2024/01/31 15:22:34;;;;;;;15.10;3.72;;;;;;;;;;4982745;28;20042;-69
2024/01/31 15:26:14;;;;;;;13.52;3.58;;;;;;;;;;4986004;28;20046;-69
2024/01/31 15:29:56;;;;;;;12.32;4.18;;;;;;;;;;4992060;28;20069;-70
2024/01/31 15:33:36;;;;;;;13.48;3.88;;;;;;;;;;4987326;28;20034;-70
2024/01/31 15:37:17;;;;;;;21.70;4.35;;;;;;;;;;4986045;28;20129;-71
2024/01/31 15:40:57;;;;;;;17.13;4.22;;;;;;;;;;4975869;28;20047;-74
2024/01/31 15:44:38;;;;;;;19.55;4.00;;;;;;;;;;4982545;28;20046;-71
2024/01/31 15:48:21;;;;;;;20.02;4.00;;;;;;;;;;4972946;28;20114;-69
2024/01/31 15:52:02;;;;;;;11.23;3.17;;;;;;;;;;4974514;28;20086;-70
2024/01/31 15:55:42;;;;;;;14.27;4.43;;;;;;;;;;4976899;28;20529;-70
2024/01/31 15:59:26;;;;;;;9.35;3.20;;;;;;;;;;4976621;28;20091;-71
2024/01/31 16:03:05;;;;;;;15.98;4.07;;;;;;;;;;4980159;28;20122;-71
2024/01/31 16:06:51;;;;;;;11.23;4.40;;;;;;;;;;4977654;28;20107;-69
2024/01/31 16:10:29;;;;;;;20.40;3.80;;;;;;;;;;4973802;28;20548;-70
2024/01/31 16:14:07;;;;;;;11.30;3.30;;;;;;;;;;4977550;28;20046;-70
2024/01/31 16:17:47;;;;;;;9.65;3.38;;;;;;;;;;4977143;28;20054;-71
2024/01/31 16:21:28;;;;;;;14.45;3.83;;;;;;;;;;4973225;28;20050;-68
2024/01/31 16:25:09;;;;;;;15.50;4.10;;;;;;;;;;4972411;28;20046;-68
2024/01/31 16:28:50;;;;;;;11.80;3.75;;;;;;;;;;4975899;28;20043;-66
2024/01/31 16:32:32;;;;;;;11.02;3.63;;;;;;;;;;4974834;28;20094;-67
2024/01/31 16:36:13;;;;;;;12.60;3.95;;;;;;;;;;4972684;28;20081;-69
2024/01/31 16:39:54;;;;;;;14.50;3.78;;;;;;;;;;4972957;28;20092;-67
2024/01/31 16:43:34;;;;;;;11.95;3.92;;;;;;;;;;4974192;28;20793;-68
2024/01/31 16:47:15;;;;;;;16.98;5.28;;;;;;;;;;4977597;28;20307;-69
2024/01/31 16:50:55;;;;;;;14.88;4.05;;;;;;;;;;4975552;28;20085;-70
2024/01/31 16:54:35;;;;;;;7.80;3.08;;;;;;;;;;4973237;28;20577;-68
2024/01/31 16:58:16;;;;;;;14.55;3.90;;;;;;;;;;4975090;28;20453;-69
2024/01/31 17:01:57;;;;;;;9.30;4.03;;;;;;;;;;4970725;28;20501;-67
2024/01/31 17:04:32;;;;;;;15.40;5.20;;;;;;;;;;4974291;28;20126;-72
2024/01/31 17:07:00;;;;;;;12.45;4.00;;;;;;;;;;4974518;28;20187;-71
2024/01/31 17:09:29;;;;;;;13.32;4.13;;;;;;;;;;4971714;28;20157;-73
2024/01/31 17:11:59;;;;;;;15.60;3.58;;;;;;;;;;4974895;28;20248;-71
2024/01/31 17:14:25;;;;;;;13.13;3.58;;;;;;;;;;4974115;28;20203;-75
2024/01/31 17:16:51;;;;;;;11.77;3.78;;;;;;;;;;4971560;28;20054;-75
2024/01/31 17:19:21;;;;;;;13.90;3.30;;;;;;;;;;4973632;28;20521;-72
2024/01/31 17:21:47;;;;;;;12.38;3.30;;;;;;;;;;4973892;28;20223;-72
2024/01/31 17:24:13;;;;;;;14.82;3.80;;;;;;;;;;4978823;28;20528;-72
2024/01/31 17:26:40;;;;;;;17.05;3.80;;;;;;;;;;4978110;28;20112;-72
2024/01/31 17:29:08;;;;;;;16.17;3.78;;;;;;;;;;4978492;28;20049;-70
2024/01/31 17:31:37;;;;;;;14.15;4.05;;;;;;;;;;4976199;28;20053;-72
2024/01/31 17:34:08;;;;;;;16.50;4.03;;;;;;;;;;4974649;28;20058;-73
2024/01/31 17:36:35;;;;;;;17.73;4.25;;;;;;;;;;4981749;28;20047;-74
2024/01/31 17:39:03;;;;;;;14.02;4.07;;;;;;;;;;4976583;28;20120;-73
2024/01/31 17:41:31;;;;;;;14.55;4.57;;;;;;;;;;4977221;28;20085;-73
2024/01/31 17:44:00;;;;;;;12.90;4.07;;;;;;;;;;4986832;28;20473;-72
2024/01/31 17:46:31;;;;;;;17.27;4.07;;;;;;;;;;4972926;28;20065;-72
2024/01/31 17:48:57;;;;;;;16.23;4.40;;;;;;;;;;4982019;28;20053;-73
2024/01/31 17:51:23;;;;;;;14.82;4.20;;;;;;;;;;4980673;28;20058;-72
2024/01/31 17:53:54;;;;;;;12.05;4.10;;;;;;;;;;4975757;28;20057;-72